createdAt,value
2019-05-29T00:01:28.522Z,2.67
2019-05-29T00:03:57.033Z,3.03
2019-05-29T00:06:25.658Z,2.77
2019-05-29T00:08:53.967Z,3.63
2019-05-29T00:11:22.583Z,2.60
2019-05-29T00:13:51.449Z,2.53
2019-05-29T00:16:21.724Z,2.67
2019-05-29T00:18:50.531Z,3.10
2019-05-29T00:21:20.209Z,2.33
2019-05-29T00:23:49.975Z,2.37
2019-05-29T00:26:18.387Z,2.50
2019-05-29T00:28:47.603Z,2.60
2019-05-29T00:31:16.680Z,2.70
2019-05-29T00:33:47.255Z,2.50
2019-05-29T00:36:16.497Z,2.00
2019-05-29T00:38:45.817Z,1.90
2019-05-29T00:41:15.068Z,1.83
2019-05-29T00:43:43.691Z,1.80
2019-05-29T00:46:13.250Z,1.70
2019-05-29T00:48:41.744Z,2.07
2019-05-29T00:51:11.657Z,1.97
2019-05-29T00:53:40.136Z,1.90
2019-05-29T00:56:09.064Z,1.70
2019-05-29T00:58:41.337Z,1.70
2019-05-29T01:01:09.315Z,1.90
2019-05-29T01:03:37.858Z,2.03
2019-05-29T01:06:06.644Z,2.17
2019-05-29T01:08:35.119Z,2.00
2019-05-29T01:11:03.616Z,1.80
2019-05-29T01:13:31.971Z,1.83
2019-05-29T01:16:00.190Z,1.70
2019-05-29T01:18:28.900Z,2.40
2019-05-29T01:20:57.016Z,1.60
2019-05-29T01:23:25.324Z,1.87
2019-05-29T01:25:54.452Z,1.57
2019-05-29T01:28:23.181Z,2.10
2019-05-29T01:30:51.760Z,1.60
2019-05-29T01:33:21.875Z,1.87
2019-05-29T01:35:49.968Z,2.47
2019-05-29T01:38:19.267Z,1.87
2019-05-29T01:40:47.540Z,1.70
2019-05-29T01:43:17.417Z,1.70
2019-05-29T01:45:45.801Z,1.63
2019-05-29T01:48:15.404Z,1.60
2019-05-29T01:50:43.645Z,1.70
2019-05-29T01:53:12.419Z,1.73
2019-05-29T01:55:41.110Z,2.30
2019-05-29T01:58:09.310Z,1.57
2019-05-29T02:00:37.483Z,2.00
2019-05-29T02:03:05.700Z,1.83
2019-05-29T02:05:33.854Z,1.83
2019-05-29T02:08:02.411Z,1.73
2019-05-29T02:10:30.566Z,2.00
2019-05-29T02:12:59.465Z,2.17
2019-05-29T02:15:33.458Z,1.80
2019-05-29T02:17:58.199Z,2.07
2019-05-29T02:20:27.179Z,2.60
2019-05-29T02:22:55.754Z,1.70
2019-05-29T02:25:24.884Z,1.80
2019-05-29T02:27:53.844Z,2.17
2019-05-29T02:30:23.550Z,1.50
2019-05-29T02:32:52.309Z,1.70
2019-05-29T02:35:22.379Z,1.93
2019-05-29T02:37:50.446Z,1.93
2019-05-29T02:40:21.162Z,1.97
2019-05-29T02:42:50.019Z,2.03
2019-05-29T02:45:21.457Z,1.63
2019-05-29T02:47:50.002Z,2.00
2019-05-29T02:50:19.705Z,1.77
2019-05-29T02:52:48.275Z,2.00
2019-05-29T02:55:17.022Z,1.60
2019-05-29T02:57:46.242Z,1.80
2019-05-29T03:00:14.882Z,2.23
2019-05-29T03:02:43.697Z,2.30
2019-05-29T03:05:12.249Z,2.10
2019-05-29T03:07:40.589Z,2.00
2019-05-29T03:10:10.649Z,2.00
2019-05-29T03:12:39.789Z,2.03
2019-05-29T03:15:09.413Z,2.07
2019-05-29T03:17:38.072Z,2.33
2019-05-29T03:20:06.713Z,2.73
2019-05-29T03:22:36.240Z,2.07
2019-05-29T03:25:04.748Z,2.10
2019-05-29T03:27:33.975Z,2.43
2019-05-29T03:30:02.341Z,2.40
2019-05-29T03:32:34.594Z,2.83
2019-05-29T03:35:01.348Z,2.23
2019-05-29T03:37:30.333Z,2.87
2019-05-29T03:39:58.892Z,3.20
2019-05-29T03:42:28.279Z,2.80
2019-05-29T03:44:56.518Z,2.70
2019-05-29T03:47:26.795Z,3.10
2019-05-29T03:49:55.223Z,3.07
2019-05-29T03:52:23.683Z,3.23
2019-05-29T03:54:51.985Z,3.67
2019-05-29T03:57:20.076Z,3.63
2019-05-29T03:59:48.653Z,3.37
2019-05-29T04:02:16.870Z,3.60
2019-05-29T04:04:45.326Z,4.13
2019-05-29T04:07:13.659Z,3.90
2019-05-29T04:09:41.777Z,3.77
2019-05-29T04:12:10.019Z,3.53
2019-05-29T04:14:40.567Z,4.60
2019-05-29T04:17:10.351Z,4.23
2019-05-29T04:19:39.000Z,4.23
2019-05-29T04:22:09.809Z,4.53
2019-05-29T04:24:40.082Z,5.00
2019-05-29T04:27:10.980Z,4.90
2019-05-29T04:29:40.542Z,4.80
2019-05-29T04:32:08.713Z,4.40
2019-05-29T04:34:37.995Z,4.47
2019-05-29T04:37:08.155Z,5.20
2019-05-29T04:39:36.950Z,4.73
2019-05-29T04:42:05.634Z,4.90
2019-05-29T04:44:35.653Z,4.73
2019-05-29T04:47:11.217Z,5.33
2019-05-29T04:49:35.760Z,4.50
2019-05-29T04:52:04.895Z,4.47
2019-05-29T04:54:33.424Z,4.17
2019-05-29T04:57:01.776Z,4.37
2019-05-29T04:59:30.868Z,4.10
2019-05-29T05:01:59.528Z,4.03
2019-05-29T05:04:29.027Z,4.17
2019-05-29T05:06:57.854Z,3.70
2019-05-29T05:09:26.482Z,4.23
2019-05-29T05:11:55.220Z,3.50
2019-05-29T05:14:24.278Z,4.07
2019-05-29T05:16:53.147Z,3.43
2019-05-29T05:19:21.634Z,3.10
2019-05-29T05:21:49.818Z,3.60
2019-05-29T05:24:18.394Z,4.40
2019-05-29T05:26:46.633Z,3.40
2019-05-29T05:29:14.863Z,3.43
2019-05-29T05:31:43.257Z,3.23
2019-05-29T05:34:11.426Z,2.57
2019-05-29T05:36:41.041Z,3.20
2019-05-29T05:39:09.497Z,3.40
2019-05-29T05:41:38.990Z,3.60
2019-05-29T05:44:07.743Z,2.80
2019-05-29T05:46:37.165Z,3.70
2019-05-29T05:49:05.829Z,3.67
2019-05-29T05:51:38.358Z,3.50
2019-05-29T05:54:05.252Z,3.63
2019-05-29T05:56:34.010Z,3.47
2019-05-29T05:59:02.906Z,3.70
2019-05-29T06:01:31.735Z,3.60
2019-05-29T06:04:00.275Z,3.33
2019-05-29T06:06:29.268Z,3.27
2019-05-29T06:08:57.755Z,2.67
2019-05-29T06:11:26.135Z,3.63
2019-05-29T06:13:54.692Z,2.67
2019-05-29T06:16:22.892Z,2.23
2019-05-29T06:18:51.241Z,2.13
2019-05-29T06:21:19.459Z,1.70
2019-05-29T06:23:47.597Z,1.47
2019-05-29T06:26:15.802Z,1.60
2019-05-29T06:28:44.165Z,1.30
2019-05-29T06:31:12.425Z,1.27
2019-05-29T06:33:41.522Z,1.50
2019-05-29T06:36:10.012Z,1.60
2019-05-29T06:38:38.250Z,1.60
2019-05-29T06:41:06.464Z,1.03
2019-05-29T06:43:35.743Z,1.33
2019-05-29T06:46:04.229Z,0.90
2019-05-29T06:48:46.293Z,0.80
2019-05-29T06:51:02.527Z,1.20
2019-05-29T06:53:30.740Z,0.83
2019-05-29T06:56:00.391Z,0.60
2019-05-29T06:58:29.536Z,0.90
2019-05-29T07:00:57.672Z,0.80
2019-05-29T07:03:25.814Z,1.00
2019-05-29T07:05:54.158Z,0.70
2019-05-29T07:08:37.516Z,1.00
2019-05-29T07:10:52.465Z,0.70
2019-05-29T07:13:22.510Z,1.30
2019-05-29T07:15:50.927Z,0.73
2019-05-29T07:18:19.104Z,0.50
2019-05-29T07:20:47.480Z,0.80
2019-05-29T07:23:15.812Z,0.60
2019-05-29T07:25:45.456Z,0.83
2019-05-29T07:28:14.070Z,0.80
2019-05-29T07:30:47.358Z,0.90
2019-05-29T07:33:13.849Z,0.70
2019-05-29T07:35:41.998Z,0.77
2019-05-29T07:38:10.797Z,0.33
2019-05-29T07:40:40.508Z,0.67
2019-05-29T07:43:08.917Z,0.80
2019-05-29T07:45:37.815Z,0.70
2019-05-29T07:48:06.479Z,0.60
2019-05-29T07:50:34.691Z,0.90
2019-05-29T07:53:03.352Z,0.60
2019-05-29T07:55:31.650Z,0.97
2019-05-29T07:57:59.825Z,0.90
2019-05-29T08:00:35.659Z,0.50
2019-05-29T08:03:00.140Z,0.90
2019-05-29T08:05:28.511Z,0.80
2019-05-29T08:07:56.728Z,0.70
2019-05-29T08:10:24.944Z,0.73
2019-05-29T08:12:55.447Z,0.40
2019-05-29T08:15:23.337Z,0.67
2019-05-29T08:17:51.567Z,0.77
2019-05-29T08:20:20.301Z,0.80
2019-05-29T08:22:48.627Z,0.70
2019-05-29T08:25:16.982Z,0.57
2019-05-29T08:27:45.210Z,0.80
2019-05-29T08:30:14.765Z,0.97
2019-05-29T08:32:43.527Z,0.57
2019-05-29T08:35:12.441Z,0.70
2019-05-29T08:37:40.825Z,1.20
2019-05-29T08:40:09.343Z,0.50
2019-05-29T08:42:37.841Z,0.70
2019-05-29T08:45:07.401Z,0.60
2019-05-29T08:47:36.758Z,1.10
2019-05-29T08:50:18.227Z,0.87
2019-05-29T08:52:35.977Z,0.80
2019-05-29T08:55:05.797Z,0.97
2019-05-29T08:57:34.066Z,0.87
2019-05-29T09:00:02.482Z,0.63
2019-05-29T09:02:30.894Z,0.70
2019-05-29T09:04:59.797Z,0.80
2019-05-29T09:07:28.160Z,0.83
2019-05-29T09:09:56.593Z,0.70
2019-05-29T09:12:24.832Z,0.90
2019-05-29T09:14:53.048Z,0.80
2019-05-29T09:17:22.585Z,0.70
2019-05-29T09:19:50.706Z,0.90
2019-05-29T09:22:18.938Z,0.60
2019-05-29T09:24:47.680Z,0.50
2019-05-29T09:27:16.992Z,0.70
2019-05-29T09:29:45.389Z,0.80
2019-05-29T09:32:15.390Z,0.50
2019-05-29T09:34:47.512Z,1.00
2019-05-29T09:37:15.470Z,0.70
2019-05-29T09:39:44.564Z,0.50
2019-05-29T09:42:13.109Z,0.80
2019-05-29T09:44:41.278Z,1.17
2019-05-29T09:47:09.472Z,0.93
2019-05-29T09:49:37.944Z,0.80
2019-05-29T09:52:06.428Z,0.60
2019-05-29T09:54:34.656Z,1.00
2019-05-29T09:57:03.224Z,0.90
2019-05-29T09:59:31.442Z,0.90
2019-05-29T10:02:03.266Z,0.70
2019-05-29T10:04:30.149Z,0.80
2019-05-29T10:06:59.564Z,1.00
2019-05-29T10:09:27.984Z,0.90
2019-05-29T10:11:59.640Z,0.70
2019-05-29T10:14:28.206Z,0.70
2019-05-29T10:16:59.258Z,0.67
2019-05-29T10:19:27.361Z,0.93
2019-05-29T10:21:56.704Z,0.83
2019-05-29T10:24:26.027Z,0.73
2019-05-29T10:26:55.588Z,1.37
2019-05-29T10:29:24.930Z,1.07
2019-05-29T10:31:53.621Z,0.80
2019-05-29T10:34:23.887Z,1.60
2019-05-29T10:36:54.577Z,1.10
2019-05-29T10:39:23.063Z,0.90
2019-05-29T10:41:51.348Z,1.00
2019-05-29T10:44:19.675Z,0.93
2019-05-29T10:46:51.847Z,0.90
2019-05-29T10:49:19.642Z,1.00
2019-05-29T10:52:09.058Z,1.00
2019-05-29T10:54:17.985Z,0.90
2019-05-29T10:56:46.858Z,1.00
2019-05-29T10:59:15.426Z,0.90
2019-05-29T11:01:45.013Z,1.20
2019-05-29T11:04:13.493Z,1.00
2019-05-29T11:06:41.907Z,1.33
2019-05-29T11:09:10.733Z,1.37
2019-05-29T11:11:38.892Z,1.20
2019-05-29T11:14:07.101Z,1.00
2019-05-29T11:16:39.588Z,0.90
2019-05-29T11:19:06.317Z,0.80
2019-05-29T11:21:34.437Z,0.90
2019-05-29T11:24:03.640Z,1.30
2019-05-29T11:26:31.846Z,1.17
2019-05-29T11:29:00.043Z,1.20
2019-05-29T11:31:28.852Z,1.10
2019-05-29T11:33:57.310Z,1.10
2019-05-29T11:36:25.480Z,1.20
2019-05-29T11:38:54.599Z,1.00
2019-05-29T11:41:26.304Z,1.10
2019-05-29T11:43:54.631Z,1.20
2019-05-29T11:46:23.394Z,1.03
2019-05-29T11:48:51.528Z,1.03
2019-05-29T11:51:19.888Z,1.00
2019-05-29T11:53:48.115Z,1.03
2019-05-29T11:56:16.283Z,1.10
2019-05-29T11:58:44.778Z,1.00
2019-05-29T12:01:13.366Z,1.10
2019-05-29T12:04:05.919Z,1.37
2019-05-29T12:06:11.620Z,1.57
2019-05-29T12:08:39.791Z,1.20
2019-05-29T12:11:08.070Z,1.13
2019-05-29T12:13:36.291Z,1.23
2019-05-29T12:16:04.609Z,1.60
2019-05-29T12:18:32.767Z,1.07
2019-05-29T12:21:02.959Z,1.27
2019-05-29T12:23:31.309Z,1.40
2019-05-29T12:26:16.609Z,1.33
2019-05-29T12:28:30.058Z,1.50
2019-05-29T12:30:59.051Z,1.70
2019-05-29T12:33:27.862Z,1.67
2019-05-29T12:35:56.980Z,1.60
2019-05-29T12:38:25.483Z,1.70
2019-05-29T12:40:53.678Z,1.13
2019-05-29T12:43:27.257Z,1.50
2019-05-29T12:45:53.456Z,1.30
2019-05-29T12:48:22.012Z,1.70
2019-05-29T12:50:50.517Z,1.73
2019-05-29T12:53:29.470Z,1.60
2019-05-29T12:55:49.545Z,1.47
2019-05-29T12:58:18.669Z,1.90
2019-05-29T13:00:47.453Z,1.30
2019-05-29T13:03:15.618Z,1.90
2019-05-29T13:05:43.820Z,1.53
2019-05-29T13:08:12.088Z,2.03
2019-05-29T13:10:40.531Z,1.70
2019-05-29T13:13:11.264Z,1.90
2019-05-29T13:15:38.809Z,1.40
2019-05-29T13:18:09.968Z,1.57
2019-05-29T13:20:37.881Z,1.80
2019-05-29T13:23:07.364Z,1.60
2019-05-29T13:25:36.016Z,1.90
2019-05-29T13:28:05.997Z,1.53
2019-05-29T13:30:34.519Z,1.57
2019-05-29T13:33:05.260Z,1.40
2019-05-29T13:35:32.935Z,1.63
2019-05-29T13:38:01.075Z,2.30
2019-05-29T13:40:29.482Z,2.67
2019-05-29T13:43:01.705Z,2.50
2019-05-29T13:45:28.013Z,2.27
2019-05-29T13:47:56.811Z,2.43
2019-05-29T13:50:25.798Z,2.63
2019-05-29T13:52:54.169Z,1.70
2019-05-29T13:55:23.234Z,2.07
2019-05-29T13:57:51.369Z,2.57
2019-05-29T14:00:35.885Z,2.37
2019-05-29T14:02:50.485Z,2.70
2019-05-29T14:05:20.501Z,2.20
2019-05-29T14:07:48.792Z,2.67
2019-05-29T14:10:17.349Z,2.00
2019-05-29T14:12:47.755Z,1.67
2019-05-29T14:15:16.620Z,2.60
2019-05-29T14:17:44.915Z,1.90
2019-05-29T14:20:14.147Z,2.47
2019-05-29T14:22:42.279Z,2.00
2019-05-29T14:25:11.680Z,1.87
2019-05-29T14:27:40.034Z,2.07
2019-05-29T14:30:10.458Z,1.70
2019-05-29T14:32:39.131Z,1.90
2019-05-29T14:35:11.019Z,1.47
2019-05-29T14:37:39.255Z,1.70
2019-05-29T14:40:08.053Z,1.90
2019-05-29T14:42:36.807Z,1.30
2019-05-29T14:45:06.169Z,1.63
2019-05-29T14:47:34.746Z,1.60
2019-05-29T14:50:04.229Z,1.83
2019-05-29T14:52:32.933Z,1.70
2019-05-29T14:55:02.680Z,2.23
2019-05-29T14:57:31.206Z,1.60
2019-05-29T14:59:59.988Z,1.87
2019-05-29T15:02:28.235Z,1.67
2019-05-29T15:04:56.594Z,2.30
2019-05-29T15:07:25.109Z,1.80
2019-05-29T15:09:53.314Z,2.00
2019-05-29T15:12:21.531Z,1.70
2019-05-29T15:14:49.688Z,1.30
2019-05-29T15:17:17.845Z,1.57
2019-05-29T15:19:46.720Z,1.47
2019-05-29T15:22:16.066Z,1.50
2019-05-29T15:24:59.603Z,1.43
2019-05-29T15:27:16.078Z,1.30
2019-05-29T15:29:44.440Z,1.50
2019-05-29T15:32:12.596Z,1.53
2019-05-29T15:34:41.172Z,1.50
2019-05-29T15:37:12.185Z,1.17
2019-05-29T15:39:40.413Z,1.30
2019-05-29T15:42:10.901Z,2.37
2019-05-29T15:44:39.275Z,1.50
2019-05-29T15:47:08.705Z,1.40
2019-05-29T15:49:37.404Z,1.50
2019-05-29T15:52:07.036Z,1.60
2019-05-29T15:54:35.634Z,1.73
2019-05-29T15:57:03.914Z,1.60
2019-05-29T15:59:32.978Z,1.67
2019-05-29T16:02:01.374Z,1.37
2019-05-29T16:04:29.777Z,1.40
2019-05-29T16:06:58.083Z,1.50
2019-05-29T16:09:26.649Z,2.00
2019-05-29T16:11:55.692Z,1.20
2019-05-29T16:14:24.034Z,1.77
2019-05-29T16:16:52.458Z,1.50
2019-05-29T16:19:20.894Z,1.70
2019-05-29T16:21:49.337Z,1.47
2019-05-29T16:24:19.022Z,1.40
2019-05-29T16:26:47.411Z,1.73
2019-05-29T16:29:17.342Z,1.60
2019-05-29T16:31:45.751Z,1.60
2019-05-29T16:34:14.803Z,1.40
2019-05-29T16:36:44.770Z,1.80
2019-05-29T16:39:13.627Z,1.50
2019-05-29T16:41:42.709Z,3.37
2019-05-29T16:44:11.983Z,1.70
2019-05-29T16:46:40.376Z,1.80
2019-05-29T16:49:08.679Z,1.23
2019-05-29T16:51:37.251Z,2.50
2019-05-29T16:54:05.792Z,1.60
2019-05-29T16:56:33.955Z,1.70
2019-05-29T16:59:02.100Z,1.30
2019-05-29T17:01:30.936Z,1.60
2019-05-29T17:03:59.372Z,2.17
2019-05-29T17:06:28.680Z,2.20
2019-05-29T17:08:56.821Z,1.80
2019-05-29T17:11:25.249Z,2.17
2019-05-29T17:13:53.617Z,2.23
2019-05-29T17:16:22.652Z,2.13
2019-05-29T17:18:51.200Z,1.97
2019-05-29T17:21:20.656Z,2.07
2019-05-29T17:23:49.134Z,2.00
2019-05-29T17:26:18.668Z,1.67
2019-05-29T17:28:47.444Z,2.00
2019-05-29T17:31:16.886Z,2.40
2019-05-29T17:33:45.726Z,1.83
2019-05-29T17:36:14.906Z,1.60
2019-05-29T17:38:43.514Z,1.70
2019-05-29T17:41:12.165Z,2.00
2019-05-29T17:43:40.294Z,1.77
2019-05-29T17:46:08.814Z,2.00
2019-05-29T17:48:37.280Z,2.17
2019-05-29T17:51:06.102Z,1.70
2019-05-29T17:53:34.382Z,1.80
2019-05-29T17:56:02.882Z,1.77
2019-05-29T17:58:31.001Z,1.73
2019-05-29T18:00:59.718Z,2.20
2019-05-29T18:03:28.175Z,1.70
2019-05-29T18:05:56.306Z,2.53
2019-05-29T18:08:25.019Z,1.87
2019-05-29T18:10:53.308Z,1.43
2019-05-29T18:13:21.774Z,1.50
2019-05-29T18:15:50.357Z,1.97
2019-05-29T18:18:19.362Z,10.20
2019-05-29T18:20:48.849Z,2.87
2019-05-29T18:23:17.573Z,2.30
2019-05-29T18:25:46.129Z,1.40
2019-05-29T18:28:14.706Z,1.60
2019-05-29T18:30:43.124Z,1.67
2019-05-29T18:33:12.094Z,1.50
2019-05-29T18:35:40.604Z,2.23
2019-05-29T18:38:09.135Z,2.90
2019-05-29T18:40:37.428Z,2.63
2019-05-29T18:43:05.977Z,2.07
2019-05-29T18:45:34.334Z,4.27
2019-05-29T18:48:02.506Z,1.43
2019-05-29T18:50:32.713Z,1.03
2019-05-29T18:53:01.250Z,1.20
2019-05-29T18:55:29.405Z,2.00
2019-05-29T18:57:57.969Z,1.43
2019-05-29T19:00:27.501Z,1.50
2019-05-29T19:02:56.248Z,1.27
2019-05-29T19:05:25.596Z,1.10
2019-05-29T19:07:53.999Z,1.70
2019-05-29T19:10:23.569Z,1.50
2019-05-29T19:12:53.414Z,1.27
2019-05-29T19:15:21.983Z,1.10
2019-05-29T19:17:50.173Z,1.70
2019-05-29T19:20:19.360Z,1.70
2019-05-29T19:22:47.947Z,1.30
2019-05-29T19:25:17.169Z,1.23
2019-05-29T19:27:45.316Z,1.20
2019-05-29T19:30:15.208Z,1.20
2019-05-29T19:32:43.390Z,1.10
2019-05-29T19:35:12.477Z,1.20
2019-05-29T19:37:40.644Z,1.00
2019-05-29T19:40:09.626Z,1.00
2019-05-29T19:42:38.047Z,1.30
2019-05-29T19:45:15.497Z,1.30
2019-05-29T19:47:43.792Z,1.13
2019-05-29T19:50:12.534Z,1.30
2019-05-29T19:52:41.020Z,1.40
2019-05-29T19:55:10.029Z,1.40
2019-05-29T19:57:55.090Z,1.60
2019-05-29T20:00:11.799Z,1.60
2019-05-29T20:02:40.531Z,1.50
2019-05-29T20:05:09.370Z,1.47
2019-05-29T20:07:37.679Z,1.77
2019-05-29T20:10:06.982Z,1.57
2019-05-29T20:12:35.716Z,1.60
2019-05-29T20:15:05.347Z,1.87
2019-05-29T20:17:34.374Z,2.33
2019-05-29T20:20:03.796Z,1.63
2019-05-29T20:22:34.587Z,1.30
2019-05-29T20:25:04.248Z,1.20
2019-05-29T20:27:36.314Z,1.40
2019-05-29T20:30:05.905Z,1.27
2019-05-29T20:32:34.685Z,1.70
2019-05-29T20:35:03.587Z,1.30
2019-05-29T20:37:32.071Z,1.70
2019-05-29T20:40:00.472Z,1.40
2019-05-29T20:42:30.084Z,1.57
2019-05-29T20:45:00.143Z,1.60
2019-05-29T20:47:28.818Z,1.93
2019-05-29T20:49:56.959Z,1.40
2019-05-29T20:52:25.447Z,1.60
2019-05-29T20:54:58.146Z,1.43
2019-05-29T20:57:24.959Z,1.70
2019-05-29T20:59:53.083Z,1.87
2019-05-29T21:02:21.728Z,1.93
2019-05-29T21:04:50.145Z,2.00
2019-05-29T21:07:18.977Z,1.80
2019-05-29T21:09:47.378Z,1.90
2019-05-29T21:12:15.563Z,2.10
2019-05-29T21:14:44.748Z,1.90
2019-05-29T21:17:13.383Z,1.83
2019-05-29T21:19:42.440Z,1.80
2019-05-29T21:22:10.795Z,2.03
2019-05-29T21:24:38.976Z,1.90
2019-05-29T21:27:07.284Z,2.20
2019-05-29T21:29:35.398Z,2.50
2019-05-29T21:32:03.963Z,3.00
2019-05-29T21:34:32.101Z,2.77
2019-05-29T21:37:02.306Z,2.27
2019-05-29T21:39:30.429Z,2.17
2019-05-29T21:41:58.814Z,2.20
2019-05-29T21:44:27.402Z,1.97
2019-05-29T21:46:55.928Z,1.63
2019-05-29T21:49:24.921Z,2.07
2019-05-29T21:51:53.183Z,2.10
2019-05-29T21:54:21.327Z,2.40
2019-05-29T21:56:49.662Z,1.60
2019-05-29T21:59:17.899Z,2.03
2019-05-29T22:01:46.468Z,2.20
2019-05-29T22:04:15.376Z,1.90
2019-05-29T22:06:44.741Z,2.47
2019-05-29T22:09:14.332Z,2.33
2019-05-29T22:11:43.415Z,2.10
2019-05-29T22:14:13.407Z,2.00
2019-05-29T22:16:41.547Z,1.93
2019-05-29T22:19:09.742Z,2.30
2019-05-29T22:21:38.436Z,1.70
2019-05-29T22:24:07.395Z,2.10
2019-05-29T22:26:35.628Z,1.90
2019-05-29T22:29:17.119Z,2.00
2019-05-29T22:31:34.868Z,2.27
2019-05-29T22:34:03.127Z,1.70
2019-05-29T22:36:32.017Z,2.10
2019-05-29T22:39:00.201Z,2.03
2019-05-29T22:41:28.435Z,2.03
2019-05-29T22:43:57.586Z,1.80
2019-05-29T22:46:25.916Z,1.87
2019-05-29T22:48:54.198Z,1.90
2019-05-29T22:51:22.354Z,1.80
2019-05-29T22:53:52.444Z,1.90
2019-05-29T22:56:21.313Z,2.00
2019-05-29T22:58:49.583Z,1.60
2019-05-29T23:01:18.043Z,1.40
2019-05-29T23:03:46.718Z,1.97
2019-05-29T23:06:14.918Z,1.80
2019-05-29T23:08:43.496Z,1.90
2019-05-29T23:11:11.818Z,1.57
2019-05-29T23:13:40.037Z,1.53
2019-05-29T23:16:08.248Z,1.70
2019-05-29T23:18:36.365Z,1.87
2019-05-29T23:21:04.924Z,1.83
2019-05-29T23:23:33.119Z,1.57
2019-05-29T23:26:02.969Z,1.70
2019-05-29T23:28:31.685Z,2.00
2019-05-29T23:31:00.986Z,1.90
2019-05-29T23:33:29.424Z,2.00
2019-05-29T23:35:59.098Z,1.80
2019-05-29T23:38:27.698Z,2.50
2019-05-29T23:40:57.400Z,1.70
2019-05-29T23:43:25.699Z,1.60
2019-05-29T23:45:55.339Z,2.27
2019-05-29T23:48:23.961Z,1.83
2019-05-29T23:50:53.342Z,2.00
2019-05-29T23:53:22.330Z,1.73
2019-05-29T23:55:51.081Z,1.83
2019-05-29T23:58:20.105Z,1.63
